sensor_id;sensor_type;location;lat;lon;timestamp;P1;durP1;ratioP1;P2;durP2;ratioP2
4831;SDS011;2430;51.322;7.864;2023-09-08T00:01:57;7.30;;;6.27;;
4831;SDS011;2430;51.322;7.864;2023-09-08T00:04:24;12.40;;;6.70;;
4831;SDS011;2430;51.322;7.864;2023-09-08T00:06:50;8.50;;;6.53;;
4831;SDS011;2430;51.322;7.864;2023-09-08T00:09:16;8.10;;;6.50;;
4831;SDS011;2430;51.322;7.864;2023-09-08T00:11:42;9.13;;;6.10;;
4831;SDS011;2430;51.322;7.864;2023-09-08T00:14:10;9.63;;;7.23;;
4831;SDS011;2430;51.322;7.864;2023-09-08T00:16:36;9.77;;;6.30;;
4831;SDS011;2430;51.322;7.864;2023-09-08T00:19:04;8.10;;;6.20;;
4831;SDS011;2430;51.322;7.864;2023-09-08T00:21:30;7.47;;;6.67;;
4831;SDS011;2430;51.322;7.864;2023-09-08T00:23:56;7.37;;;6.60;;
4831;SDS011;2430;51.322;7.864;2023-09-08T00:26:23;7.90;;;6.43;;
4831;SDS011;2430;51.322;7.864;2023-09-08T00:28:49;10.63;;;6.43;;
4831;SDS011;2430;51.322;7.864;2023-09-08T00:31:16;7.97;;;6.17;;
4831;SDS011;2430;51.322;7.864;2023-09-08T00:33:43;11.07;;;6.60;;
4831;SDS011;2430;51.322;7.864;2023-09-08T00:36:09;9.17;;;6.10;;
4831;SDS011;2430;51.322;7.864;2023-09-08T00:38:35;12.03;;;6.60;;
4831;SDS011;2430;51.322;7.864;2023-09-08T00:41:02;8.57;;;6.30;;
4831;SDS011;2430;51.322;7.864;2023-09-08T00:43:28;8.53;;;6.00;;
4831;SDS011;2430;51.322;7.864;2023-09-08T00:45:54;6.87;;;6.27;;
4831;SDS011;2430;51.322;7.864;2023-09-08T00:48:24;8.50;;;5.90;;
4831;SDS011;2430;51.322;7.864;2023-09-08T00:50:51;7.17;;;6.10;;
4831;SDS011;2430;51.322;7.864;2023-09-08T00:53:17;8.27;;;6.77;;
4831;SDS011;2430;51.322;7.864;2023-09-08T00:55:44;7.93;;;6.03;;
4831;SDS011;2430;51.322;7.864;2023-09-08T00:58:11;9.83;;;6.83;;
4831;SDS011;2430;51.322;7.864;2023-09-08T01:00:37;7.70;;;6.53;;
4831;SDS011;2430;51.322;7.864;2023-09-08T01:03:04;7.83;;;5.93;;
4831;SDS011;2430;51.322;7.864;2023-09-08T01:05:31;8.90;;;6.03;;
4831;SDS011;2430;51.322;7.864;2023-09-08T01:07:59;6.73;;;5.83;;
4831;SDS011;2430;51.322;7.864;2023-09-08T01:10:25;8.50;;;6.40;;
4831;SDS011;2430;51.322;7.864;2023-09-08T01:12:52;8.70;;;6.60;;
4831;SDS011;2430;51.322;7.864;2023-09-08T01:15:18;8.60;;;6.80;;
4831;SDS011;2430;51.322;7.864;2023-09-08T01:17:44;7.23;;;6.53;;
4831;SDS011;2430;51.322;7.864;2023-09-08T01:20:13;8.73;;;6.20;;
4831;SDS011;2430;51.322;7.864;2023-09-08T01:22:49;7.40;;;5.70;;
4831;SDS011;2430;51.322;7.864;2023-09-08T01:25:19;7.40;;;6.60;;
4831;SDS011;2430;51.322;7.864;2023-09-08T01:27:48;9.37;;;6.50;;
4831;SDS011;2430;51.322;7.864;2023-09-08T01:30:16;6.93;;;6.23;;
4831;SDS011;2430;51.322;7.864;2023-09-08T01:32:41;6.30;;;5.70;;
4831;SDS011;2430;51.322;7.864;2023-09-08T01:35:09;6.77;;;6.07;;
4831;SDS011;2430;51.322;7.864;2023-09-08T01:37:35;7.87;;;5.70;;
4831;SDS011;2430;51.322;7.864;2023-09-08T01:40:01;7.97;;;6.00;;
4831;SDS011;2430;51.322;7.864;2023-09-08T01:42:29;6.73;;;5.23;;
4831;SDS011;2430;51.322;7.864;2023-09-08T01:44:55;11.63;;;5.80;;
4831;SDS011;2430;51.322;7.864;2023-09-08T01:47:21;7.53;;;5.57;;
4831;SDS011;2430;51.322;7.864;2023-09-08T01:49:48;7.63;;;6.10;;
4831;SDS011;2430;51.322;7.864;2023-09-08T01:52:14;7.70;;;5.40;;
4831;SDS011;2430;51.322;7.864;2023-09-08T01:54:40;10.03;;;5.73;;
4831;SDS011;2430;51.322;7.864;2023-09-08T01:57:07;6.70;;;5.57;;
4831;SDS011;2430;51.322;7.864;2023-09-08T01:59:34;8.50;;;6.10;;
4831;SDS011;2430;51.322;7.864;2023-09-08T02:02:02;9.97;;;5.70;;
4831;SDS011;2430;51.322;7.864;2023-09-08T02:04:29;6.47;;;5.30;;
4831;SDS011;2430;51.322;7.864;2023-09-08T02:06:55;9.10;;;5.30;;
4831;SDS011;2430;51.322;7.864;2023-09-08T02:09:22;6.40;;;5.70;;
4831;SDS011;2430;51.322;7.864;2023-09-08T02:11:48;6.20;;;5.07;;
4831;SDS011;2430;51.322;7.864;2023-09-08T02:14:14;7.57;;;5.50;;
4831;SDS011;2430;51.322;7.864;2023-09-08T02:16:42;6.50;;;5.80;;
4831;SDS011;2430;51.322;7.864;2023-09-08T02:19:08;11.93;;;5.37;;
4831;SDS011;2430;51.322;7.864;2023-09-08T02:21:34;9.60;;;5.80;;
4831;SDS011;2430;51.322;7.864;2023-09-08T02:24:00;7.60;;;5.07;;
4831;SDS011;2430;51.322;7.864;2023-09-08T02:26:27;6.00;;;5.40;;
4831;SDS011;2430;51.322;7.864;2023-09-08T02:28:54;9.13;;;5.13;;
4831;SDS011;2430;51.322;7.864;2023-09-08T02:31:20;7.23;;;5.13;;
4831;SDS011;2430;51.322;7.864;2023-09-08T02:33:48;5.93;;;5.43;;
4831;SDS011;2430;51.322;7.864;2023-09-08T02:36:14;12.10;;;4.60;;
4831;SDS011;2430;51.322;7.864;2023-09-08T02:38:42;6.73;;;5.30;;
4831;SDS011;2430;51.322;7.864;2023-09-08T02:41:08;5.83;;;5.27;;
4831;SDS011;2430;51.322;7.864;2023-09-08T02:43:34;10.40;;;5.40;;
4831;SDS011;2430;51.322;7.864;2023-09-08T02:46:00;7.10;;;5.67;;
4831;SDS011;2430;51.322;7.864;2023-09-08T02:48:27;6.30;;;5.03;;
4831;SDS011;2430;51.322;7.864;2023-09-08T02:50:54;6.57;;;5.90;;
4831;SDS011;2430;51.322;7.864;2023-09-08T02:53:20;6.33;;;5.20;;
4831;SDS011;2430;51.322;7.864;2023-09-08T02:55:47;9.53;;;5.93;;
4831;SDS011;2430;51.322;7.864;2023-09-08T02:58:13;6.10;;;5.50;;
4831;SDS011;2430;51.322;7.864;2023-09-08T03:00:39;8.33;;;5.20;;
4831;SDS011;2430;51.322;7.864;2023-09-08T03:03:06;5.70;;;4.80;;
4831;SDS011;2430;51.322;7.864;2023-09-08T03:05:32;9.00;;;6.07;;
4831;SDS011;2430;51.322;7.864;2023-09-08T03:08:00;12.27;;;6.00;;
4831;SDS011;2430;51.322;7.864;2023-09-08T03:10:26;5.83;;;5.20;;
4831;SDS011;2430;51.322;7.864;2023-09-08T03:12:54;5.70;;;5.20;;
4831;SDS011;2430;51.322;7.864;2023-09-08T03:15:19;6.23;;;5.30;;
4831;SDS011;2430;51.322;7.864;2023-09-08T03:17:46;6.20;;;5.50;;
4831;SDS011;2430;51.322;7.864;2023-09-08T03:20:12;9.57;;;5.43;;
4831;SDS011;2430;51.322;7.864;2023-09-08T03:22:39;9.27;;;5.70;;
4831;SDS011;2430;51.322;7.864;2023-09-08T03:25:07;6.60;;;5.80;;
4831;SDS011;2430;51.322;7.864;2023-09-08T03:27:34;11.40;;;6.40;;
4831;SDS011;2430;51.322;7.864;2023-09-08T03:30:01;12.20;;;5.13;;
4831;SDS011;2430;51.322;7.864;2023-09-08T03:32:28;7.03;;;5.73;;
4831;SDS011;2430;51.322;7.864;2023-09-08T03:34:54;6.97;;;5.77;;
4831;SDS011;2430;51.322;7.864;2023-09-08T03:37:21;7.17;;;5.83;;
4831;SDS011;2430;51.322;7.864;2023-09-08T03:39:48;7.00;;;5.80;;
4831;SDS011;2430;51.322;7.864;2023-09-08T03:42:16;10.50;;;6.57;;
4831;SDS011;2430;51.322;7.864;2023-09-08T03:44:43;13.70;;;5.63;;
4831;SDS011;2430;51.322;7.864;2023-09-08T03:47:10;8.20;;;5.83;;
4831;SDS011;2430;51.322;7.864;2023-09-08T03:49:37;6.77;;;5.57;;
4831;SDS011;2430;51.322;7.864;2023-09-08T03:52:04;6.70;;;5.80;;
4831;SDS011;2430;51.322;7.864;2023-09-08T03:54:30;7.43;;;5.50;;
4831;SDS011;2430;51.322;7.864;2023-09-08T03:56:57;11.77;;;6.57;;
4831;SDS011;2430;51.322;7.864;2023-09-08T03:59:25;6.97;;;6.27;;
4831;SDS011;2430;51.322;7.864;2023-09-08T04:01:52;11.03;;;6.30;;
4831;SDS011;2430;51.322;7.864;2023-09-08T04:04:18;7.03;;;6.20;;
4831;SDS011;2430;51.322;7.864;2023-09-08T04:06:45;10.67;;;6.30;;
4831;SDS011;2430;51.322;7.864;2023-09-08T04:09:12;10.40;;;6.23;;
4831;SDS011;2430;51.322;7.864;2023-09-08T04:11:38;8.10;;;6.13;;
4831;SDS011;2430;51.322;7.864;2023-09-08T04:14:05;7.60;;;6.60;;
4831;SDS011;2430;51.322;7.864;2023-09-08T04:16:33;13.20;;;7.10;;
4831;SDS011;2430;51.322;7.864;2023-09-08T04:19:00;9.33;;;6.60;;
4831;SDS011;2430;51.322;7.864;2023-09-08T04:21:26;8.20;;;7.30;;
4831;SDS011;2430;51.322;7.864;2023-09-08T04:23:53;8.60;;;7.07;;
4831;SDS011;2430;51.322;7.864;2023-09-08T04:26:19;12.00;;;7.10;;
4831;SDS011;2430;51.322;7.864;2023-09-08T04:28:45;9.00;;;7.27;;
4831;SDS011;2430;51.322;7.864;2023-09-08T04:31:12;9.40;;;6.83;;
4831;SDS011;2430;51.322;7.864;2023-09-08T04:33:40;11.80;;;6.70;;
4831;SDS011;2430;51.322;7.864;2023-09-08T04:36:06;9.50;;;6.87;;
4831;SDS011;2430;51.322;7.864;2023-09-08T04:38:32;10.20;;;6.37;;
4831;SDS011;2430;51.322;7.864;2023-09-08T04:40:59;7.90;;;6.10;;
4831;SDS011;2430;51.322;7.864;2023-09-08T04:43:26;10.53;;;6.40;;
4831;SDS011;2430;51.322;7.864;2023-09-08T04:45:52;10.63;;;6.30;;
4831;SDS011;2430;51.322;7.864;2023-09-08T04:48:19;7.43;;;5.60;;
4831;SDS011;2430;51.322;7.864;2023-09-08T04:50:48;10.20;;;6.90;;
4831;SDS011;2430;51.322;7.864;2023-09-08T04:53:16;7.10;;;6.13;;
4831;SDS011;2430;51.322;7.864;2023-09-08T04:55:43;8.20;;;6.50;;
4831;SDS011;2430;51.322;7.864;2023-09-08T04:58:09;12.87;;;7.37;;
4831;SDS011;2430;51.322;7.864;2023-09-08T05:00:37;8.40;;;6.93;;
4831;SDS011;2430;51.322;7.864;2023-09-08T05:03:04;7.73;;;6.20;;
4831;SDS011;2430;51.322;7.864;2023-09-08T05:05:30;8.83;;;6.73;;
4831;SDS011;2430;51.322;7.864;2023-09-08T05:07:58;8.27;;;6.80;;
4831;SDS011;2430;51.322;7.864;2023-09-08T05:10:25;8.10;;;6.83;;
4831;SDS011;2430;51.322;7.864;2023-09-08T05:12:51;15.57;;;7.00;;
4831;SDS011;2430;51.322;7.864;2023-09-08T05:15:17;12.40;;;6.53;;
4831;SDS011;2430;51.322;7.864;2023-09-08T05:17:46;9.13;;;6.40;;
4831;SDS011;2430;51.322;7.864;2023-09-08T05:20:12;12.27;;;7.47;;
4831;SDS011;2430;51.322;7.864;2023-09-08T05:22:39;11.60;;;7.67;;
4831;SDS011;2430;51.322;7.864;2023-09-08T05:25:07;7.73;;;6.57;;
4831;SDS011;2430;51.322;7.864;2023-09-08T05:27:33;7.80;;;6.77;;
4831;SDS011;2430;51.322;7.864;2023-09-08T05:29:59;9.80;;;6.90;;
4831;SDS011;2430;51.322;7.864;2023-09-08T05:32:26;10.10;;;7.70;;
4831;SDS011;2430;51.322;7.864;2023-09-08T05:34:52;9.87;;;6.20;;
4831;SDS011;2430;51.322;7.864;2023-09-08T05:37:18;8.90;;;7.57;;
4831;SDS011;2430;51.322;7.864;2023-09-08T05:39:44;11.30;;;7.73;;
4831;SDS011;2430;51.322;7.864;2023-09-08T05:42:12;8.07;;;6.80;;
4831;SDS011;2430;51.322;7.864;2023-09-08T05:44:38;9.00;;;7.00;;
4831;SDS011;2430;51.322;7.864;2023-09-08T05:47:05;10.80;;;7.90;;
4831;SDS011;2430;51.322;7.864;2023-09-08T05:49:31;8.93;;;8.03;;
4831;SDS011;2430;51.322;7.864;2023-09-08T05:51:57;8.93;;;6.70;;
4831;SDS011;2430;51.322;7.864;2023-09-08T05:54:24;13.17;;;7.60;;
4831;SDS011;2430;51.322;7.864;2023-09-08T05:56:50;7.47;;;6.67;;
4831;SDS011;2430;51.322;7.864;2023-09-08T05:59:18;9.63;;;8.13;;
4831;SDS011;2430;51.322;7.864;2023-09-08T06:01:44;8.30;;;6.80;;
4831;SDS011;2430;51.322;7.864;2023-09-08T06:04:10;10.63;;;6.63;;
4831;SDS011;2430;51.322;7.864;2023-09-08T06:06:36;8.50;;;6.00;;
4831;SDS011;2430;51.322;7.864;2023-09-08T06:09:03;11.00;;;6.03;;
4831;SDS011;2430;51.322;7.864;2023-09-08T06:11:31;7.20;;;6.50;;
4831;SDS011;2430;51.322;7.864;2023-09-08T06:13:57;11.30;;;6.50;;
4831;SDS011;2430;51.322;7.864;2023-09-08T06:16:26;8.17;;;5.83;;
4831;SDS011;2430;51.322;7.864;2023-09-08T06:18:52;11.10;;;6.30;;
4831;SDS011;2430;51.322;7.864;2023-09-08T06:21:18;7.40;;;6.27;;
4831;SDS011;2430;51.322;7.864;2023-09-08T06:23:45;9.53;;;6.27;;
4831;SDS011;2430;51.322;7.864;2023-09-08T06:26:11;7.30;;;6.07;;
4831;SDS011;2430;51.322;7.864;2023-09-08T06:28:38;10.33;;;6.43;;
4831;SDS011;2430;51.322;7.864;2023-09-08T06:31:06;11.37;;;5.77;;
4831;SDS011;2430;51.322;7.864;2023-09-08T06:33:34;8.90;;;6.40;;
4831;SDS011;2430;51.322;7.864;2023-09-08T06:36:01;8.00;;;5.57;;
4831;SDS011;2430;51.322;7.864;2023-09-08T06:38:27;13.77;;;5.80;;
4831;SDS011;2430;51.322;7.864;2023-09-08T06:40:56;11.00;;;5.10;;
4831;SDS011;2430;51.322;7.864;2023-09-08T06:43:22;8.13;;;5.47;;
4831;SDS011;2430;51.322;7.864;2023-09-08T06:45:49;6.80;;;5.27;;
4831;SDS011;2430;51.322;7.864;2023-09-08T06:48:15;7.27;;;5.53;;
4831;SDS011;2430;51.322;7.864;2023-09-08T06:50:43;9.33;;;5.33;;
4831;SDS011;2430;51.322;7.864;2023-09-08T06:53:09;8.47;;;5.60;;
4831;SDS011;2430;51.322;7.864;2023-09-08T06:55:37;7.83;;;5.10;;
4831;SDS011;2430;51.322;7.864;2023-09-08T06:58:03;6.57;;;5.47;;
4831;SDS011;2430;51.322;7.864;2023-09-08T07:00:30;10.27;;;5.67;;
4831;SDS011;2430;51.322;7.864;2023-09-08T07:02:56;7.80;;;4.63;;
4831;SDS011;2430;51.322;7.864;2023-09-08T07:05:22;7.20;;;5.07;;
4831;SDS011;2430;51.322;7.864;2023-09-08T07:07:50;7.00;;;5.10;;
4831;SDS011;2430;51.322;7.864;2023-09-08T07:10:16;10.57;;;4.53;;
4831;SDS011;2430;51.322;7.864;2023-09-08T07:12:43;7.90;;;4.77;;
4831;SDS011;2430;51.322;7.864;2023-09-08T07:15:09;7.17;;;4.20;;
4831;SDS011;2430;51.322;7.864;2023-09-08T07:17:35;6.80;;;4.53;;
4831;SDS011;2430;51.322;7.864;2023-09-08T07:20:02;5.77;;;4.90;;
4831;SDS011;2430;51.322;7.864;2023-09-08T07:22:28;6.53;;;4.20;;
4831;SDS011;2430;51.322;7.864;2023-09-08T07:24:56;6.27;;;4.10;;
4831;SDS011;2430;51.322;7.864;2023-09-08T07:27:22;5.60;;;4.30;;
4831;SDS011;2430;51.322;7.864;2023-09-08T07:29:48;9.13;;;4.13;;
4831;SDS011;2430;51.322;7.864;2023-09-08T07:32:15;4.60;;;3.90;;
4831;SDS011;2430;51.322;7.864;2023-09-08T07:34:41;4.37;;;3.53;;
4831;SDS011;2430;51.322;7.864;2023-09-08T07:37:07;6.57;;;3.97;;
4831;SDS011;2430;51.322;7.864;2023-09-08T07:39:34;5.30;;;3.60;;
4831;SDS011;2430;51.322;7.864;2023-09-08T07:42:02;5.13;;;3.77;;
4831;SDS011;2430;51.322;7.864;2023-09-08T07:44:28;11.20;;;3.90;;
4831;SDS011;2430;51.322;7.864;2023-09-08T07:46:54;7.00;;;4.37;;
4831;SDS011;2430;51.322;7.864;2023-09-08T07:49:21;6.30;;;3.87;;
4831;SDS011;2430;51.322;7.864;2023-09-08T07:51:48;10.97;;;3.57;;
4831;SDS011;2430;51.322;7.864;2023-09-08T07:54:14;5.40;;;3.27;;
4831;SDS011;2430;51.322;7.864;2023-09-08T07:56:40;8.03;;;3.60;;
4831;SDS011;2430;51.322;7.864;2023-09-08T07:59:08;10.57;;;3.30;;
4831;SDS011;2430;51.322;7.864;2023-09-08T08:01:34;8.67;;;4.00;;
4831;SDS011;2430;51.322;7.864;2023-09-08T08:04:00;4.37;;;3.27;;
4831;SDS011;2430;51.322;7.864;2023-09-08T08:06:28;4.40;;;3.47;;
4831;SDS011;2430;51.322;7.864;2023-09-08T08:08:54;3.60;;;3.00;;
4831;SDS011;2430;51.322;7.864;2023-09-08T08:11:21;4.10;;;3.30;;
4831;SDS011;2430;51.322;7.864;2023-09-08T08:13:47;5.00;;;3.50;;
4831;SDS011;2430;51.322;7.864;2023-09-08T08:16:15;8.53;;;2.90;;
4831;SDS011;2430;51.322;7.864;2023-09-08T08:18:41;3.53;;;3.10;;
4831;SDS011;2430;51.322;7.864;2023-09-08T08:21:07;5.27;;;4.07;;
4831;SDS011;2430;51.322;7.864;2023-09-08T08:23:34;8.37;;;3.73;;
4831;SDS011;2430;51.322;7.864;2023-09-08T08:26:01;3.50;;;3.20;;
4831;SDS011;2430;51.322;7.864;2023-09-08T08:28:28;4.53;;;3.20;;
4831;SDS011;2430;51.322;7.864;2023-09-08T08:30:54;6.80;;;3.57;;
4831;SDS011;2430;51.322;7.864;2023-09-08T08:33:22;3.53;;;2.83;;
4831;SDS011;2430;51.322;7.864;2023-09-08T08:35:50;5.43;;;3.47;;
4831;SDS011;2430;51.322;7.864;2023-09-08T08:38:17;8.70;;;4.00;;
4831;SDS011;2430;51.322;7.864;2023-09-08T08:40:43;4.03;;;3.00;;
4831;SDS011;2430;51.322;7.864;2023-09-08T08:43:10;3.80;;;2.90;;
4831;SDS011;2430;51.322;7.864;2023-09-08T08:45:37;3.13;;;2.83;;
4831;SDS011;2430;51.322;7.864;2023-09-08T08:48:04;3.70;;;2.93;;
4831;SDS011;2430;51.322;7.864;2023-09-08T08:50:32;3.33;;;2.70;;
4831;SDS011;2430;51.322;7.864;2023-09-08T08:52:58;5.10;;;3.17;;
4831;SDS011;2430;51.322;7.864;2023-09-08T08:55:28;3.53;;;3.23;;
4831;SDS011;2430;51.322;7.864;2023-09-08T08:57:55;4.13;;;3.00;;
4831;SDS011;2430;51.322;7.864;2023-09-08T09:00:21;2.87;;;2.67;;
4831;SDS011;2430;51.322;7.864;2023-09-08T09:02:47;4.27;;;3.20;;
4831;SDS011;2430;51.322;7.864;2023-09-08T09:05:15;3.57;;;2.70;;
4831;SDS011;2430;51.322;7.864;2023-09-08T09:07:43;3.83;;;2.73;;
4831;SDS011;2430;51.322;7.864;2023-09-08T09:10:09;3.40;;;2.60;;
4831;SDS011;2430;51.322;7.864;2023-09-08T09:12:36;3.90;;;2.93;;
4831;SDS011;2430;51.322;7.864;2023-09-08T09:15:02;3.20;;;2.90;;
4831;SDS011;2430;51.322;7.864;2023-09-08T09:17:29;3.90;;;2.60;;
4831;SDS011;2430;51.322;7.864;2023-09-08T09:22:36;3.50;;;3.10;;
4831;SDS011;2430;51.322;7.864;2023-09-08T09:25:04;3.10;;;2.80;;
4831;SDS011;2430;51.322;7.864;2023-09-08T09:27:32;3.10;;;2.53;;
4831;SDS011;2430;51.322;7.864;2023-09-08T09:30:00;2.90;;;2.60;;
4831;SDS011;2430;51.322;7.864;2023-09-08T09:32:26;3.13;;;2.77;;
4831;SDS011;2430;51.322;7.864;2023-09-08T09:34:54;5.10;;;2.70;;
4831;SDS011;2430;51.322;7.864;2023-09-08T09:37:21;4.40;;;3.43;;
4831;SDS011;2430;51.322;7.864;2023-09-08T09:40:02;3.00;;;2.70;;
4831;SDS011;2430;51.322;7.864;2023-09-08T09:42:33;7.77;;;2.77;;
4831;SDS011;2430;51.322;7.864;2023-09-08T09:45:00;3.30;;;3.00;;
4831;SDS011;2430;51.322;7.864;2023-09-08T09:47:26;2.57;;;2.37;;
4831;SDS011;2430;51.322;7.864;2023-09-08T09:49:52;3.87;;;2.83;;
4831;SDS011;2430;51.322;7.864;2023-09-08T09:52:22;2.80;;;2.60;;
4831;SDS011;2430;51.322;7.864;2023-09-08T09:54:50;2.87;;;2.63;;
4831;SDS011;2430;51.322;7.864;2023-09-08T09:57:19;3.03;;;2.70;;
4831;SDS011;2430;51.322;7.864;2023-09-08T09:59:47;3.47;;;2.63;;
4831;SDS011;2430;51.322;7.864;2023-09-08T10:02:18;4.57;;;3.20;;
4831;SDS011;2430;51.322;7.864;2023-09-08T10:04:45;5.50;;;3.00;;
4831;SDS011;2430;51.322;7.864;2023-09-08T10:07:13;7.00;;;2.80;;
4831;SDS011;2430;51.322;7.864;2023-09-08T10:09:40;3.30;;;2.70;;
4831;SDS011;2430;51.322;7.864;2023-09-08T10:12:06;7.97;;;3.07;;
4831;SDS011;2430;51.322;7.864;2023-09-08T10:14:35;8.27;;;2.80;;
4831;SDS011;2430;51.322;7.864;2023-09-08T10:17:03;7.33;;;3.37;;
4831;SDS011;2430;51.322;7.864;2023-09-08T10:19:31;3.00;;;2.80;;
4831;SDS011;2430;51.322;7.864;2023-09-08T10:22:01;6.00;;;3.00;;
4831;SDS011;2430;51.322;7.864;2023-09-08T10:24:29;5.10;;;2.90;;
4831;SDS011;2430;51.322;7.864;2023-09-08T10:26:58;3.97;;;2.90;;
4831;SDS011;2430;51.322;7.864;2023-09-08T10:29:26;3.03;;;2.73;;
4831;SDS011;2430;51.322;7.864;2023-09-08T10:31:53;7.37;;;3.33;;
4831;SDS011;2430;51.322;7.864;2023-09-08T10:34:21;3.40;;;3.10;;
4831;SDS011;2430;51.322;7.864;2023-09-08T10:36:47;3.60;;;2.63;;
4831;SDS011;2430;51.322;7.864;2023-09-08T10:39:30;4.43;;;2.40;;
4831;SDS011;2430;51.322;7.864;2023-09-08T10:44:41;6.47;;;2.83;;
4831;SDS011;2430;51.322;7.864;2023-09-08T10:47:08;3.25;;;2.90;;
4831;SDS011;2430;51.322;7.864;2023-09-08T10:49:36;3.80;;;3.08;;
4831;SDS011;2430;51.322;7.864;2023-09-08T10:52:05;4.57;;;2.50;;
4831;SDS011;2430;51.322;7.864;2023-09-08T10:54:42;2.80;;;2.60;;
4831;SDS011;2430;51.322;7.864;2023-09-08T10:57:12;3.65;;;2.90;;
4831;SDS011;2430;51.322;7.864;2023-09-08T10:59:39;5.13;;;3.10;;
4831;SDS011;2430;51.322;7.864;2023-09-08T11:02:06;3.80;;;3.10;;
4831;SDS011;2430;51.322;7.864;2023-09-08T11:04:33;2.92;;;2.67;;
4831;SDS011;2430;51.322;7.864;2023-09-08T11:07:02;2.78;;;2.55;;
4831;SDS011;2430;51.322;7.864;2023-09-08T11:09:28;3.30;;;3.00;;
4831;SDS011;2430;51.322;7.864;2023-09-08T11:11:55;3.33;;;2.83;;
4831;SDS011;2430;51.322;7.864;2023-09-08T11:14:21;2.90;;;2.63;;
4831;SDS011;2430;51.322;7.864;2023-09-08T11:16:48;3.10;;;2.80;;
4831;SDS011;2430;51.322;7.864;2023-09-08T11:19:14;2.67;;;2.43;;
4831;SDS011;2430;51.322;7.864;2023-09-08T11:21:40;3.97;;;2.70;;
4831;SDS011;2430;51.322;7.864;2023-09-08T11:24:08;3.13;;;2.83;;
4831;SDS011;2430;51.322;7.864;2023-09-08T11:26:36;3.10;;;2.90;;
4831;SDS011;2430;51.322;7.864;2023-09-08T11:29:03;4.83;;;2.80;;
4831;SDS011;2430;51.322;7.864;2023-09-08T11:31:29;5.40;;;2.97;;
4831;SDS011;2430;51.322;7.864;2023-09-08T11:33:55;4.40;;;2.58;;
4831;SDS011;2430;51.322;7.864;2023-09-08T11:36:23;3.83;;;2.90;;
4831;SDS011;2430;51.322;7.864;2023-09-08T11:38:49;2.85;;;2.55;;
4831;SDS011;2430;51.322;7.864;2023-09-08T11:41:17;2.88;;;2.42;;
4831;SDS011;2430;51.322;7.864;2023-09-08T11:43:47;3.58;;;2.42;;
4831;SDS011;2430;51.322;7.864;2023-09-08T11:46:13;3.83;;;2.58;;
4831;SDS011;2430;51.322;7.864;2023-09-08T11:48:40;4.25;;;2.78;;
4831;SDS011;2430;51.322;7.864;2023-09-08T11:51:07;3.35;;;2.70;;
4831;SDS011;2430;51.322;7.864;2023-09-08T11:53:33;3.05;;;2.40;;
4831;SDS011;2430;51.322;7.864;2023-09-08T11:56:01;3.08;;;2.83;;
4831;SDS011;2430;51.322;7.864;2023-09-08T11:58:28;2.40;;;2.20;;
4831;SDS011;2430;51.322;7.864;2023-09-08T12:00:55;3.58;;;2.35;;
4831;SDS011;2430;51.322;7.864;2023-09-08T12:03:21;2.30;;;2.10;;
4831;SDS011;2430;51.322;7.864;2023-09-08T12:05:50;2.63;;;2.43;;
4831;SDS011;2430;51.322;7.864;2023-09-08T12:08:17;3.92;;;2.22;;
4831;SDS011;2430;51.322;7.864;2023-09-08T12:10:43;2.25;;;2.00;;
4831;SDS011;2430;51.322;7.864;2023-09-08T12:13:10;2.60;;;2.40;;
4831;SDS011;2430;51.322;7.864;2023-09-08T12:15:40;3.50;;;2.35;;
4831;SDS011;2430;51.322;7.864;2023-09-08T12:18:07;2.50;;;2.30;;
4831;SDS011;2430;51.322;7.864;2023-09-08T12:20:34;3.65;;;2.40;;
4831;SDS011;2430;51.322;7.864;2023-09-08T12:23:01;2.78;;;2.28;;
4831;SDS011;2430;51.322;7.864;2023-09-08T12:25:28;5.07;;;2.22;;
4831;SDS011;2430;51.322;7.864;2023-09-08T12:27:56;3.22;;;2.80;;
4831;SDS011;2430;51.322;7.864;2023-09-08T12:30:23;2.85;;;2.60;;
4831;SDS011;2430;51.322;7.864;2023-09-08T12:32:56;10.00;;;2.88;;
4831;SDS011;2430;51.322;7.864;2023-09-08T12:35:23;8.90;;;2.28;;
4831;SDS011;2430;51.322;7.864;2023-09-08T12:37:59;2.95;;;2.70;;
4831;SDS011;2430;51.322;7.864;2023-09-08T12:40:25;2.60;;;2.40;;
4831;SDS011;2430;51.322;7.864;2023-09-08T12:42:52;2.70;;;2.50;;
4831;SDS011;2430;51.322;7.864;2023-09-08T12:45:18;2.80;;;2.50;;
4831;SDS011;2430;51.322;7.864;2023-09-08T12:47:44;3.33;;;2.55;;
4831;SDS011;2430;51.322;7.864;2023-09-08T12:50:12;2.78;;;2.40;;
4831;SDS011;2430;51.322;7.864;2023-09-08T12:52:39;4.32;;;2.40;;
4831;SDS011;2430;51.322;7.864;2023-09-08T12:55:05;4.13;;;2.70;;
4831;SDS011;2430;51.322;7.864;2023-09-08T12:57:32;2.72;;;2.53;;
4831;SDS011;2430;51.322;7.864;2023-09-08T12:59:58;4.63;;;2.83;;
4831;SDS011;2430;51.322;7.864;2023-09-08T13:02:24;2.80;;;2.40;;
4831;SDS011;2430;51.322;7.864;2023-09-08T13:04:51;3.35;;;2.95;;
4831;SDS011;2430;51.322;7.864;2023-09-08T13:07:19;5.22;;;2.28;;
4831;SDS011;2430;51.322;7.864;2023-09-08T13:09:46;2.60;;;2.40;;
4831;SDS011;2430;51.322;7.864;2023-09-08T13:12:12;2.53;;;2.30;;
4831;SDS011;2430;51.322;7.864;2023-09-08T13:14:39;2.70;;;2.33;;
4831;SDS011;2430;51.322;7.864;2023-09-08T13:17:05;2.42;;;2.22;;
4831;SDS011;2430;51.322;7.864;2023-09-08T13:19:32;4.25;;;2.38;;
4831;SDS011;2430;51.322;7.864;2023-09-08T13:21:58;4.80;;;2.17;;
4831;SDS011;2430;51.322;7.864;2023-09-08T13:24:26;2.97;;;2.50;;
4831;SDS011;2430;51.322;7.864;2023-09-08T13:26:52;3.30;;;2.35;;
4831;SDS011;2430;51.322;7.864;2023-09-08T13:29:18;2.35;;;2.15;;
4831;SDS011;2430;51.322;7.864;2023-09-08T13:31:45;3.92;;;2.78;;
4831;SDS011;2430;51.322;7.864;2023-09-08T13:34:11;2.95;;;2.33;;
4831;SDS011;2430;51.322;7.864;2023-09-08T13:36:37;2.30;;;2.10;;
4831;SDS011;2430;51.322;7.864;2023-09-08T13:39:04;7.55;;;2.20;;
4831;SDS011;2430;51.322;7.864;2023-09-08T13:41:45;3.67;;;2.20;;
4831;SDS011;2430;51.322;7.864;2023-09-08T13:44:11;3.38;;;2.45;;
4831;SDS011;2430;51.322;7.864;2023-09-08T13:46:37;3.00;;;2.40;;
4831;SDS011;2430;51.322;7.864;2023-09-08T13:49:03;3.45;;;2.45;;
4831;SDS011;2430;51.322;7.864;2023-09-08T13:51:30;4.05;;;2.20;;
4831;SDS011;2430;51.322;7.864;2023-09-08T13:53:56;2.70;;;2.28;;
4831;SDS011;2430;51.322;7.864;2023-09-08T13:56:22;3.40;;;2.40;;
4831;SDS011;2430;51.322;7.864;2023-09-08T13:58:50;2.50;;;2.30;;
4831;SDS011;2430;51.322;7.864;2023-09-08T14:01:16;2.70;;;2.40;;
4831;SDS011;2430;51.322;7.864;2023-09-08T14:03:43;2.83;;;2.40;;
4831;SDS011;2430;51.322;7.864;2023-09-08T14:06:09;2.70;;;2.40;;
4831;SDS011;2430;51.322;7.864;2023-09-08T14:08:35;3.70;;;2.80;;
4831;SDS011;2430;51.322;7.864;2023-09-08T14:11:01;7.33;;;2.73;;
4831;SDS011;2430;51.322;7.864;2023-09-08T14:13:28;3.80;;;2.83;;
4831;SDS011;2430;51.322;7.864;2023-09-08T14:15:58;4.00;;;2.57;;
4831;SDS011;2430;51.322;7.864;2023-09-08T14:18:25;3.30;;;2.67;;
4831;SDS011;2430;51.322;7.864;2023-09-08T14:20:51;3.13;;;2.83;;
4831;SDS011;2430;51.322;7.864;2023-09-08T14:23:17;2.60;;;2.40;;
4831;SDS011;2430;51.322;7.864;2023-09-08T14:25:43;4.67;;;3.13;;
4831;SDS011;2430;51.322;7.864;2023-09-08T14:28:10;4.83;;;2.80;;
4831;SDS011;2430;51.322;7.864;2023-09-08T14:30:36;5.53;;;2.93;;
4831;SDS011;2430;51.322;7.864;2023-09-08T14:33:04;6.50;;;2.80;;
4831;SDS011;2430;51.322;7.864;2023-09-08T14:35:31;3.80;;;2.97;;
4831;SDS011;2430;51.322;7.864;2023-09-08T14:37:57;4.50;;;3.30;;
4831;SDS011;2430;51.322;7.864;2023-09-08T14:40:24;7.50;;;3.30;;
4831;SDS011;2430;51.322;7.864;2023-09-08T14:42:50;4.43;;;2.77;;
4831;SDS011;2430;51.322;7.864;2023-09-08T14:45:16;3.53;;;2.50;;
4831;SDS011;2430;51.322;7.864;2023-09-08T14:47:43;3.10;;;2.80;;
4831;SDS011;2430;51.322;7.864;2023-09-08T14:50:10;7.73;;;3.10;;
4831;SDS011;2430;51.322;7.864;2023-09-08T14:52:38;3.77;;;2.83;;
4831;SDS011;2430;51.322;7.864;2023-09-08T14:55:06;3.53;;;3.07;;
4831;SDS011;2430;51.322;7.864;2023-09-08T14:57:34;4.37;;;2.67;;
4831;SDS011;2430;51.322;7.864;2023-09-08T15:00:00;4.80;;;3.10;;
4831;SDS011;2430;51.322;7.864;2023-09-08T15:02:28;6.80;;;2.90;;
4831;SDS011;2430;51.322;7.864;2023-09-08T15:04:55;3.17;;;2.90;;
4831;SDS011;2430;51.322;7.864;2023-09-08T15:07:22;4.73;;;3.07;;
4831;SDS011;2430;51.322;7.864;2023-09-08T15:09:49;9.07;;;3.27;;
4831;SDS011;2430;51.322;7.864;2023-09-08T15:12:15;6.57;;;3.30;;
4831;SDS011;2430;51.322;7.864;2023-09-08T15:14:42;4.33;;;3.03;;
4831;SDS011;2430;51.322;7.864;2023-09-08T15:17:10;4.17;;;3.20;;